Details From DNKA - KADUNA
To DNSO - SADIQ ABUBAKAR III INTL
Flight Number -
Tags generated
Created
Modified
Stats Distance 221 nm / 410 km
Max Altitude 16,900 ft / 5,151 m
Waypoints 4
Social Downloads 2
Likes 0
Share VATSIM

Download

Looking for another format? Having issues loading an existing format? Contact us
Advertisement - Login to hide

Notes

Basic altitude profile: - Ascent Rate: 500ft/min - Ascent Speed: 140kts - Cruise Altitude: 10000ft - Cruise Speed: 180kts - Descent Rate: 500ft/min - Descent Speed: 140kts Options: - Use NATs: yes - Use PACOTS: yes - Use low airways: yes - Use high airways: yes

Route

DNKA KINDO V224 SOK DNSO

ID Type Via Altitude Latitude Longitude Leg Dist Tot Dist Heading (true) Name
O DNKA APT - 0 ft / 0 m 10.69587˚ 7.32014˚ - 0 nm - KADUNA
KINDO FIX - 16,900 ft / 5,151 m 10.37347˚ 6.58592˚ 47 nm 47 nm 246° / 246° -
SOK VOR V224 (AWY-LO) 5,500 ft / 1,676 m 12.92109˚ 5.22931˚ 172 nm 220 nm 333° / 332° SOKOTO VOR-DME
O DNSO APT - 0 ft / 0 m 12.91590˚ 5.20689˚ 1 nm 221 nm 257° / 257° SADIQ ABUBAKAR III INTL

Altitude Profile

Advertisement - Login to hide

Weather


0- 5 10 15 20 25 30 35+ Temperature / ° C

Clouds and Precipitation
Forecast for 2018-02-23 12:00 UTC. Updated an hour ago

Ground ~20,000 ft ~40,000 ft Winds

DNKA

Details ICAO DNKA (KAD)
Name KADUNA
Region Nigeria
Timezone Africa/Lagos (UTC+1.0)
Stats Elevation 2,073 ft / 632 m (AMSL)
Location 10.695866° 7.320144°
Runways 1
Magnetic Variation 0.516° W

METAR

Not found

TAF

TAF DNKA 230950Z 2312/2418 21006KT 9999 FEW012 PROB30 TEMPO 2316/2320 TS FEW022CB

Decode

Departure Runways

ID Width Length Bearing (true) Bearing (mag) Surface Threshold Offset Overrun Length
05 197 ft / 60 m 9,860 ft / 3,005 m 49.54° 50.06° Asphalt 0 ft / 0 m 390 ft / 119 m
23 197 ft / 60 m 9,860 ft / 3,005 m 229.54° 230.06° Asphalt 0 ft / 0 m 390 ft / 119 m

DNSO

Details ICAO DNSO (SKO)
Name SADIQ ABUBAKAR III INTL
Region Nigeria
Timezone Africa/Lagos (UTC+1.0)
Stats Elevation 1,010 ft / 308 m (AMSL)
Location 12.915896° 5.206894°
Runways 1
Magnetic Variation 0.624° W

METAR

Not found

TAF

TAF DNSO 230340Z 2306/2412 07009KT CAVOK

Decode

Destination Runways

ID Width Length Bearing (true) Bearing (mag) Surface Threshold Offset Overrun Length
08 197 ft / 60 m 9,837 ft / 2,998 m 76.61° 77.23° Asphalt 0 ft / 0 m 390 ft / 119 m
26 197 ft / 60 m 9,837 ft / 2,998 m 256.61° 257.23° Asphalt 0 ft / 0 m 390 ft / 119 m

Approach Navaids

Runway Type Ident Frequency Range Bearing (true) Bearing (mag) Slope Elevation
08 Localiser ISK 109.50 MHz 18 nm / 33 km 76.62° 77.24° - 1,024 ft / 312 m (AMSL)
08 Glidescope ISK 109.50 MHz 10 nm / 19 km 76.61° 77.24° 3.00° 1,047 ft / 319 m (AMSL)
08 DME ISK 109.50 MHz 18 nm / 33 km - - - 1,010 ft / 308 m (AMSL)

Popular Alternatives